sensor_id;sensor_type;location;lat;lon;timestamp;temperature;humidity
27114;DHT22;14648;49.730;8.614;2023-04-01T00:00:57;11.50;61.10
27114;DHT22;14648;49.730;8.614;2023-04-01T00:03:25;11.50;60.90
27114;DHT22;14648;49.730;8.614;2023-04-01T00:05:53;11.50;60.80
27114;DHT22;14648;49.730;8.614;2023-04-01T00:08:19;11.50;60.80
27114;DHT22;14648;49.730;8.614;2023-04-01T00:10:45;11.50;60.70
27114;DHT22;14648;49.730;8.614;2023-04-01T00:13:11;11.50;60.60
27114;DHT22;14648;49.730;8.614;2023-04-01T00:15:37;11.50;60.30
27114;DHT22;14648;49.730;8.614;2023-04-01T00:18:03;11.50;60.00
27114;DHT22;14648;49.730;8.614;2023-04-01T00:20:30;11.60;59.80
27114;DHT22;14648;49.730;8.614;2023-04-01T00:22:59;11.60;59.40
27114;DHT22;14648;49.730;8.614;2023-04-01T00:25:25;11.60;59.30
27114;DHT22;14648;49.730;8.614;2023-04-01T00:27:51;11.60;59.20
27114;DHT22;14648;49.730;8.614;2023-04-01T00:30:18;11.60;59.00
27114;DHT22;14648;49.730;8.614;2023-04-01T00:32:43;11.60;58.90
27114;DHT22;14648;49.730;8.614;2023-04-01T00:35:10;11.70;58.90
27114;DHT22;14648;49.730;8.614;2023-04-01T00:37:36;11.70;58.70
27114;DHT22;14648;49.730;8.614;2023-04-01T00:40:04;11.70;58.60
27114;DHT22;14648;49.730;8.614;2023-04-01T00:42:31;11.70;58.50
27114;DHT22;14648;49.730;8.614;2023-04-01T00:44:58;11.70;58.50
27114;DHT22;14648;49.730;8.614;2023-04-01T00:47:25;11.70;58.40
27114;DHT22;14648;49.730;8.614;2023-04-01T00:49:53;11.70;58.40
27114;DHT22;14648;49.730;8.614;2023-04-01T00:52:22;11.70;58.30
27114;DHT22;14648;49.730;8.614;2023-04-01T00:54:53;11.70;58.20
27114;DHT22;14648;49.730;8.614;2023-04-01T00:57:28;11.70;58.20
27114;DHT22;14648;49.730;8.614;2023-04-01T00:59:56;11.70;58.10
27114;DHT22;14648;49.730;8.614;2023-04-01T01:02:24;11.70;58.10
27114;DHT22;14648;49.730;8.614;2023-04-01T01:04:50;11.70;58.00
27114;DHT22;14648;49.730;8.614;2023-04-01T01:07:34;11.70;57.90
27114;DHT22;14648;49.730;8.614;2023-04-01T01:10:33;11.70;57.90
27114;DHT22;14648;49.730;8.614;2023-04-01T01:15:44;11.70;57.70
27114;DHT22;14648;49.730;8.614;2023-04-01T01:18:47;11.70;57.70
27114;DHT22;14648;49.730;8.614;2023-04-01T01:21:30;11.80;57.70
27114;DHT22;14648;49.730;8.614;2023-04-01T01:27:06;11.70;57.70
27114;DHT22;14648;49.730;8.614;2023-04-01T01:29:37;11.80;57.60
27114;DHT22;14648;49.730;8.614;2023-04-01T01:32:19;11.70;57.60
27114;DHT22;14648;49.730;8.614;2023-04-01T01:35:22;11.70;57.60
27114;DHT22;14648;49.730;8.614;2023-04-01T01:37:56;11.70;58.20
27114;DHT22;14648;49.730;8.614;2023-04-01T01:40:26;11.70;57.70
27114;DHT22;14648;49.730;8.614;2023-04-01T01:42:56;11.70;57.70
27114;DHT22;14648;49.730;8.614;2023-04-01T01:45:26;11.70;57.80
27114;DHT22;14648;49.730;8.614;2023-04-01T01:47:53;11.70;57.90
27114;DHT22;14648;49.730;8.614;2023-04-01T01:50:21;11.70;57.90
27114;DHT22;14648;49.730;8.614;2023-04-01T01:52:48;11.60;58.00
27114;DHT22;14648;49.730;8.614;2023-04-01T01:55:30;11.60;57.90
27114;DHT22;14648;49.730;8.614;2023-04-01T02:01:00;11.60;57.80
27114;DHT22;14648;49.730;8.614;2023-04-01T02:03:29;11.70;57.90
27114;DHT22;14648;49.730;8.614;2023-04-01T02:05:59;11.60;57.70
27114;DHT22;14648;49.730;8.614;2023-04-01T02:08:42;11.60;57.60
27114;DHT22;14648;49.730;8.614;2023-04-01T02:11:16;11.60;57.60
27114;DHT22;14648;49.730;8.614;2023-04-01T02:14:09;11.60;57.50
27114;DHT22;14648;49.730;8.614;2023-04-01T02:16:45;11.60;57.40
27114;DHT22;14648;49.730;8.614;2023-04-01T02:19:17;11.60;57.30
27114;DHT22;14648;49.730;8.614;2023-04-01T02:21:50;11.60;57.30
27114;DHT22;14648;49.730;8.614;2023-04-01T02:24:20;11.60;58.00
27114;DHT22;14648;49.730;8.614;2023-04-01T02:26:53;11.60;57.30
27114;DHT22;14648;49.730;8.614;2023-04-01T02:29:21;11.60;57.30
27114;DHT22;14648;49.730;8.614;2023-04-01T02:31:48;11.60;57.20
27114;DHT22;14648;49.730;8.614;2023-04-01T02:34:15;11.60;57.20
27114;DHT22;14648;49.730;8.614;2023-04-01T02:36:41;11.60;57.20
27114;DHT22;14648;49.730;8.614;2023-04-01T02:39:08;11.60;57.20
27114;DHT22;14648;49.730;8.614;2023-04-01T02:41:41;11.60;57.20
27114;DHT22;14648;49.730;8.614;2023-04-01T02:44:09;11.60;57.30
27114;DHT22;14648;49.730;8.614;2023-04-01T02:46:35;11.60;57.30
27114;DHT22;14648;49.730;8.614;2023-04-01T02:49:01;11.60;57.30
27114;DHT22;14648;49.730;8.614;2023-04-01T02:51:27;11.60;57.20
27114;DHT22;14648;49.730;8.614;2023-04-01T02:53:53;11.50;57.30
27114;DHT22;14648;49.730;8.614;2023-04-01T02:56:18;11.50;57.30
27114;DHT22;14648;49.730;8.614;2023-04-01T02:58:45;11.50;57.30
27114;DHT22;14648;49.730;8.614;2023-04-01T03:01:11;11.50;57.30
27114;DHT22;14648;49.730;8.614;2023-04-01T03:03:37;11.50;57.40
27114;DHT22;14648;49.730;8.614;2023-04-01T03:06:12;11.40;57.30
27114;DHT22;14648;49.730;8.614;2023-04-01T03:08:39;11.40;57.30
27114;DHT22;14648;49.730;8.614;2023-04-01T03:11:05;11.40;57.40
27114;DHT22;14648;49.730;8.614;2023-04-01T03:13:31;11.40;57.50
27114;DHT22;14648;49.730;8.614;2023-04-01T03:15:57;11.40;57.60
27114;DHT22;14648;49.730;8.614;2023-04-01T03:18:23;11.40;57.70
27114;DHT22;14648;49.730;8.614;2023-04-01T03:20:49;11.40;58.40
27114;DHT22;14648;49.730;8.614;2023-04-01T03:23:15;11.40;57.80
27114;DHT22;14648;49.730;8.614;2023-04-01T03:25:43;11.30;57.80
27114;DHT22;14648;49.730;8.614;2023-04-01T03:28:08;11.30;57.80
27114;DHT22;14648;49.730;8.614;2023-04-01T03:30:35;11.30;57.80
27114;DHT22;14648;49.730;8.614;2023-04-01T03:33:01;11.30;57.90
27114;DHT22;14648;49.730;8.614;2023-04-01T03:35:27;11.30;57.90
27114;DHT22;14648;49.730;8.614;2023-04-01T03:37:53;11.30;57.90
27114;DHT22;14648;49.730;8.614;2023-04-01T03:40:20;11.30;57.90
27114;DHT22;14648;49.730;8.614;2023-04-01T03:42:46;11.30;57.90
27114;DHT22;14648;49.730;8.614;2023-04-01T03:45:12;11.30;58.00
27114;DHT22;14648;49.730;8.614;2023-04-01T03:47:39;11.30;58.00
27114;DHT22;14648;49.730;8.614;2023-04-01T03:50:06;11.30;57.90
27114;DHT22;14648;49.730;8.614;2023-04-01T03:52:33;11.30;57.90
27114;DHT22;14648;49.730;8.614;2023-04-01T03:54:59;11.40;57.90
27114;DHT22;14648;49.730;8.614;2023-04-01T03:57:24;11.30;58.00
27114;DHT22;14648;49.730;8.614;2023-04-01T03:59:50;11.40;58.00
27114;DHT22;14648;49.730;8.614;2023-04-01T04:02:16;11.30;57.90
27114;DHT22;14648;49.730;8.614;2023-04-01T04:04:42;11.30;57.90
27114;DHT22;14648;49.730;8.614;2023-04-01T04:07:07;11.30;58.00
27114;DHT22;14648;49.730;8.614;2023-04-01T04:09:33;11.40;58.00
27114;DHT22;14648;49.730;8.614;2023-04-01T04:11:59;11.40;58.10
27114;DHT22;14648;49.730;8.614;2023-04-01T04:14:26;11.40;58.10
27114;DHT22;14648;49.730;8.614;2023-04-01T04:16:51;11.40;58.10
27114;DHT22;14648;49.730;8.614;2023-04-01T04:19:19;11.40;58.10
27114;DHT22;14648;49.730;8.614;2023-04-01T04:21:45;11.30;58.10
27114;DHT22;14648;49.730;8.614;2023-04-01T04:24:10;11.40;58.10
27114;DHT22;14648;49.730;8.614;2023-04-01T04:26:36;11.40;58.10
27114;DHT22;14648;49.730;8.614;2023-04-01T04:29:02;11.30;58.10
27114;DHT22;14648;49.730;8.614;2023-04-01T04:31:28;11.30;58.10
27114;DHT22;14648;49.730;8.614;2023-04-01T04:33:54;11.30;58.10
27114;DHT22;14648;49.730;8.614;2023-04-01T04:36:20;11.40;58.20
27114;DHT22;14648;49.730;8.614;2023-04-01T04:38:50;11.30;58.20
27114;DHT22;14648;49.730;8.614;2023-04-01T04:41:19;11.30;58.20
27114;DHT22;14648;49.730;8.614;2023-04-01T04:43:51;11.30;58.20
27114;DHT22;14648;49.730;8.614;2023-04-01T04:46:19;11.30;58.20
27114;DHT22;14648;49.730;8.614;2023-04-01T04:48:46;11.30;58.30
27114;DHT22;14648;49.730;8.614;2023-04-01T04:51:16;11.30;58.20
27114;DHT22;14648;49.730;8.614;2023-04-01T04:53:44;11.40;58.20
27114;DHT22;14648;49.730;8.614;2023-04-01T04:56:10;11.40;58.20
27114;DHT22;14648;49.730;8.614;2023-04-01T04:58:37;11.30;58.20
27114;DHT22;14648;49.730;8.614;2023-04-01T05:01:08;11.40;58.20
27114;DHT22;14648;49.730;8.614;2023-04-01T05:03:36;11.30;58.20
27114;DHT22;14648;49.730;8.614;2023-04-01T05:06:02;11.40;58.20
27114;DHT22;14648;49.730;8.614;2023-04-01T05:08:29;11.40;58.20
27114;DHT22;14648;49.730;8.614;2023-04-01T05:10:54;11.30;58.20
27114;DHT22;14648;49.730;8.614;2023-04-01T05:13:20;11.40;58.20
27114;DHT22;14648;49.730;8.614;2023-04-01T05:15:49;11.30;58.20
27114;DHT22;14648;49.730;8.614;2023-04-01T05:18:14;11.40;58.20
27114;DHT22;14648;49.730;8.614;2023-04-01T05:20:50;11.40;58.20
27114;DHT22;14648;49.730;8.614;2023-04-01T05:23:16;11.40;58.20
27114;DHT22;14648;49.730;8.614;2023-04-01T05:25:42;11.40;58.10
27114;DHT22;14648;49.730;8.614;2023-04-01T05:28:08;11.40;58.10
27114;DHT22;14648;49.730;8.614;2023-04-01T05:30:34;11.40;58.10
27114;DHT22;14648;49.730;8.614;2023-04-01T05:33:00;11.40;58.10
27114;DHT22;14648;49.730;8.614;2023-04-01T05:35:25;11.40;58.10
27114;DHT22;14648;49.730;8.614;2023-04-01T05:37:51;11.40;58.00
27114;DHT22;14648;49.730;8.614;2023-04-01T05:40:17;11.40;58.10
27114;DHT22;14648;49.730;8.614;2023-04-01T05:42:43;11.40;58.00
27114;DHT22;14648;49.730;8.614;2023-04-01T05:45:09;11.40;57.90
27114;DHT22;14648;49.730;8.614;2023-04-01T05:47:35;11.40;57.90
27114;DHT22;14648;49.730;8.614;2023-04-01T05:50:01;11.40;57.90
27114;DHT22;14648;49.730;8.614;2023-04-01T05:52:26;11.40;58.00
27114;DHT22;14648;49.730;8.614;2023-04-01T05:54:52;11.40;58.00
27114;DHT22;14648;49.730;8.614;2023-04-01T05:57:18;11.40;58.00
27114;DHT22;14648;49.730;8.614;2023-04-01T05:59:43;11.40;58.10
27114;DHT22;14648;49.730;8.614;2023-04-01T06:02:10;11.50;58.20
27114;DHT22;14648;49.730;8.614;2023-04-01T06:04:38;11.50;58.20
27114;DHT22;14648;49.730;8.614;2023-04-01T06:07:15;11.40;58.10
27114;DHT22;14648;49.730;8.614;2023-04-01T06:09:43;11.40;58.20
27114;DHT22;14648;49.730;8.614;2023-04-01T06:15:18;11.40;58.10
27114;DHT22;14648;49.730;8.614;2023-04-01T06:21:19;11.40;58.20
27114;DHT22;14648;49.730;8.614;2023-04-01T06:27:39;11.40;58.20
27114;DHT22;14648;49.730;8.614;2023-04-01T06:33:05;11.40;58.30
27114;DHT22;14648;49.730;8.614;2023-04-01T06:44:51;11.40;58.40
27114;DHT22;14648;49.730;8.614;2023-04-01T06:50:05;11.40;58.40
27114;DHT22;14648;49.730;8.614;2023-04-01T06:52:58;11.40;58.40
27114;DHT22;14648;49.730;8.614;2023-04-01T06:55:44;11.40;58.40
27114;DHT22;14648;49.730;8.614;2023-04-01T06:58:31;11.40;58.40
27114;DHT22;14648;49.730;8.614;2023-04-01T07:01:03;11.40;58.40
27114;DHT22;14648;49.730;8.614;2023-04-01T07:03:49;11.50;58.50
27114;DHT22;14648;49.730;8.614;2023-04-01T07:06:44;11.40;58.50
27114;DHT22;14648;49.730;8.614;2023-04-01T07:09:18;11.40;58.60
27114;DHT22;14648;49.730;8.614;2023-04-01T07:11:45;11.40;58.60
27114;DHT22;14648;49.730;8.614;2023-04-01T07:14:29;11.40;58.60
27114;DHT22;14648;49.730;8.614;2023-04-01T07:17:08;11.40;58.80
27114;DHT22;14648;49.730;8.614;2023-04-01T07:22:39;11.40;58.80
27114;DHT22;14648;49.730;8.614;2023-04-01T07:25:17;11.40;58.80
27114;DHT22;14648;49.730;8.614;2023-04-01T07:27:45;11.40;58.80
27114;DHT22;14648;49.730;8.614;2023-04-01T07:30:16;11.40;58.80
27114;DHT22;14648;49.730;8.614;2023-04-01T07:35:41;11.40;59.00
27114;DHT22;14648;49.730;8.614;2023-04-01T07:40:57;11.40;59.10
27114;DHT22;14648;49.730;8.614;2023-04-01T07:43:40;11.40;59.10
27114;DHT22;14648;49.730;8.614;2023-04-01T07:46:11;11.50;59.90
27114;DHT22;14648;49.730;8.614;2023-04-01T07:49:00;11.50;59.30
27114;DHT22;14648;49.730;8.614;2023-04-01T07:51:40;11.60;59.40
27114;DHT22;14648;49.730;8.614;2023-04-01T07:54:25;11.60;59.40
27114;DHT22;14648;49.730;8.614;2023-04-01T08:02:42;11.70;59.40
27114;DHT22;14648;49.730;8.614;2023-04-01T08:05:29;11.70;59.70
27114;DHT22;14648;49.730;8.614;2023-04-01T08:08:27;11.70;59.30
27114;DHT22;14648;49.730;8.614;2023-04-01T08:14:08;11.80;59.30
27114;DHT22;14648;49.730;8.614;2023-04-01T08:25:39;11.80;59.30
27114;DHT22;14648;49.730;8.614;2023-04-01T08:28:22;11.80;59.40
27114;DHT22;14648;49.730;8.614;2023-04-01T08:31:00;11.70;59.30
27114;DHT22;14648;49.730;8.614;2023-04-01T08:33:31;11.70;59.50
27114;DHT22;14648;49.730;8.614;2023-04-01T08:36:10;11.70;59.60
27114;DHT22;14648;49.730;8.614;2023-04-01T08:57:08;11.50;60.60
27114;DHT22;14648;49.730;8.614;2023-04-01T09:02:51;11.50;60.90
27114;DHT22;14648;49.730;8.614;2023-04-01T09:17:18;11.60;61.00
27114;DHT22;14648;49.730;8.614;2023-04-01T09:26:47;11.60;61.20
27114;DHT22;14648;49.730;8.614;2023-04-01T09:29:46;11.70;61.20
27114;DHT22;14648;49.730;8.614;2023-04-01T09:38:20;11.80;61.50
27114;DHT22;14648;49.730;8.614;2023-04-01T09:43:58;11.90;61.80
27114;DHT22;14648;49.730;8.614;2023-04-01T09:46:50;11.90;62.00
27114;DHT22;14648;49.730;8.614;2023-04-01T09:49:55;11.80;61.80
27114;DHT22;14648;49.730;8.614;2023-04-01T09:52:43;11.80;62.30
27114;DHT22;14648;49.730;8.614;2023-04-01T10:02:04;11.70;63.20
27114;DHT22;14648;49.730;8.614;2023-04-01T10:20:54;11.70;64.00
27114;DHT22;14648;49.730;8.614;2023-04-01T10:23:30;11.80;64.20
27114;DHT22;14648;49.730;8.614;2023-04-01T10:29:59;11.90;64.50
27114;DHT22;14648;49.730;8.614;2023-04-01T10:48:54;12.00;64.20
27114;DHT22;14648;49.730;8.614;2023-04-01T10:58:34;12.10;64.20
27114;DHT22;14648;49.730;8.614;2023-04-01T11:04:39;12.20;64.20
27114;DHT22;14648;49.730;8.614;2023-04-01T11:20:19;12.20;65.00
27114;DHT22;14648;49.730;8.614;2023-04-01T11:26:29;12.20;65.20
27114;DHT22;14648;49.730;8.614;2023-04-01T11:29:18;12.20;65.70
27114;DHT22;14648;49.730;8.614;2023-04-01T11:46:39;12.00;66.80
27114;DHT22;14648;49.730;8.614;2023-04-01T11:52:31;12.00;66.90
27114;DHT22;14648;49.730;8.614;2023-04-01T11:55:28;12.00;67.00
27114;DHT22;14648;49.730;8.614;2023-04-01T11:58:26;12.00;67.10
27114;DHT22;14648;49.730;8.614;2023-04-01T12:01:17;12.00;67.10
27114;DHT22;14648;49.730;8.614;2023-04-01T12:04:06;12.00;67.10
27114;DHT22;14648;49.730;8.614;2023-04-01T12:09:49;12.00;67.00
27114;DHT22;14648;49.730;8.614;2023-04-01T12:15:50;12.00;66.80
27114;DHT22;14648;49.730;8.614;2023-04-01T12:18:42;12.00;66.70
27114;DHT22;14648;49.730;8.614;2023-04-01T12:21:36;12.10;66.90
27114;DHT22;14648;49.730;8.614;2023-04-01T12:24:25;12.10;67.00
27114;DHT22;14648;49.730;8.614;2023-04-01T12:27:29;12.10;66.90
27114;DHT22;14648;49.730;8.614;2023-04-01T12:30:33;12.10;67.00
27114;DHT22;14648;49.730;8.614;2023-04-01T12:36:27;12.20;66.60
27114;DHT22;14648;49.730;8.614;2023-04-01T12:54:29;12.30;66.00
27114;DHT22;14648;49.730;8.614;2023-04-01T12:57:23;12.30;65.90
27114;DHT22;14648;49.730;8.614;2023-04-01T13:00:39;12.30;65.70
27114;DHT22;14648;49.730;8.614;2023-04-01T13:06:11;12.30;65.90
27114;DHT22;14648;49.730;8.614;2023-04-01T13:12:21;12.30;66.10
27114;DHT22;14648;49.730;8.614;2023-04-01T13:18:32;12.30;66.10
27114;DHT22;14648;49.730;8.614;2023-04-01T13:21:51;12.30;66.10
27114;DHT22;14648;49.730;8.614;2023-04-01T13:27:21;12.30;66.00
27114;DHT22;14648;49.730;8.614;2023-04-01T13:30:09;12.30;66.10
27114;DHT22;14648;49.730;8.614;2023-04-01T13:37:04;12.30;66.50
27114;DHT22;14648;49.730;8.614;2023-04-01T13:39:38;12.30;66.60
27114;DHT22;14648;49.730;8.614;2023-04-01T13:42:17;12.30;66.50
27114;DHT22;14648;49.730;8.614;2023-04-01T13:45:35;12.20;66.80
27114;DHT22;14648;49.730;8.614;2023-04-01T13:48:50;12.20;67.00
27114;DHT22;14648;49.730;8.614;2023-04-01T13:54:40;12.20;66.90
27114;DHT22;14648;49.730;8.614;2023-04-01T13:57:43;12.10;66.80
27114;DHT22;14648;49.730;8.614;2023-04-01T14:00:42;12.10;66.90
27114;DHT22;14648;49.730;8.614;2023-04-01T14:03:50;12.10;66.80
27114;DHT22;14648;49.730;8.614;2023-04-01T14:07:02;12.10;66.90
27114;DHT22;14648;49.730;8.614;2023-04-01T14:12:47;12.10;66.90
27114;DHT22;14648;49.730;8.614;2023-04-01T14:29:48;12.20;66.80
27114;DHT22;14648;49.730;8.614;2023-04-01T14:32:55;12.20;66.70
27114;DHT22;14648;49.730;8.614;2023-04-01T14:38:54;12.20;66.70
27114;DHT22;14648;49.730;8.614;2023-04-01T14:41:59;12.20;66.90
27114;DHT22;14648;49.730;8.614;2023-04-01T14:44:46;12.20;66.70
27114;DHT22;14648;49.730;8.614;2023-04-01T14:50:22;12.20;66.50
27114;DHT22;14648;49.730;8.614;2023-04-01T14:58:14;12.20;66.40
27114;DHT22;14648;49.730;8.614;2023-04-01T15:01:01;12.10;66.50
27114;DHT22;14648;49.730;8.614;2023-04-01T15:09:21;12.10;66.70
27114;DHT22;14648;49.730;8.614;2023-04-01T15:18:08;12.00;66.90
27114;DHT22;14648;49.730;8.614;2023-04-01T15:21:05;12.00;66.80
27114;DHT22;14648;49.730;8.614;2023-04-01T15:29:37;12.00;66.90
27114;DHT22;14648;49.730;8.614;2023-04-01T15:32:50;12.00;67.00
27114;DHT22;14648;49.730;8.614;2023-04-01T15:35:37;12.00;66.90
27114;DHT22;14648;49.730;8.614;2023-04-01T15:38:20;12.00;66.80
27114;DHT22;14648;49.730;8.614;2023-04-01T15:43:45;12.10;66.90
27114;DHT22;14648;49.730;8.614;2023-04-01T15:46:44;12.20;66.70
27114;DHT22;14648;49.730;8.614;2023-04-01T15:52:22;12.30;66.40
27114;DHT22;14648;49.730;8.614;2023-04-01T15:55:14;12.30;66.10
27114;DHT22;14648;49.730;8.614;2023-04-01T16:03:45;12.30;65.50
27114;DHT22;14648;49.730;8.614;2023-04-01T16:07:10;12.30;65.40
27114;DHT22;14648;49.730;8.614;2023-04-01T16:10:06;12.30;65.20
27114;DHT22;14648;49.730;8.614;2023-04-01T16:15:50;12.40;64.80
27114;DHT22;14648;49.730;8.614;2023-04-01T16:18:28;12.40;64.70
27114;DHT22;14648;49.730;8.614;2023-04-01T16:21:24;12.40;64.60
27114;DHT22;14648;49.730;8.614;2023-04-01T16:24:10;12.40;64.30
27114;DHT22;14648;49.730;8.614;2023-04-01T16:26:54;12.40;64.20
27114;DHT22;14648;49.730;8.614;2023-04-01T16:29:30;12.40;64.00
27114;DHT22;14648;49.730;8.614;2023-04-01T16:32:20;12.50;64.10
27114;DHT22;14648;49.730;8.614;2023-04-01T16:37:47;12.50;63.60
27114;DHT22;14648;49.730;8.614;2023-04-01T16:45:57;12.50;63.20
27114;DHT22;14648;49.730;8.614;2023-04-01T16:54:56;12.50;62.90
27114;DHT22;14648;49.730;8.614;2023-04-01T16:57:30;12.50;62.60
27114;DHT22;14648;49.730;8.614;2023-04-01T17:00:16;12.50;62.60
27114;DHT22;14648;49.730;8.614;2023-04-01T17:08:36;12.50;62.40
27114;DHT22;14648;49.730;8.614;2023-04-01T17:11:12;12.50;62.40
27114;DHT22;14648;49.730;8.614;2023-04-01T17:13:57;12.50;62.20
27114;DHT22;14648;49.730;8.614;2023-04-01T17:16:46;12.50;62.00
27114;DHT22;14648;49.730;8.614;2023-04-01T17:19:46;12.40;61.70
27114;DHT22;14648;49.730;8.614;2023-04-01T17:22:38;12.40;61.60
27114;DHT22;14648;49.730;8.614;2023-04-01T17:25:34;12.40;61.00
27114;DHT22;14648;49.730;8.614;2023-04-01T17:34:03;12.40;61.40
27114;DHT22;14648;49.730;8.614;2023-04-01T17:43:01;12.30;61.30
27114;DHT22;14648;49.730;8.614;2023-04-01T17:45:52;12.30;61.30
27114;DHT22;14648;49.730;8.614;2023-04-01T18:14:51;11.90;61.90
27114;DHT22;14648;49.730;8.614;2023-04-01T18:17:45;11.90;61.70
27114;DHT22;14648;49.730;8.614;2023-04-01T18:20:52;11.80;61.50
27114;DHT22;14648;49.730;8.614;2023-04-01T18:23:36;11.80;61.60
27114;DHT22;14648;49.730;8.614;2023-04-01T18:26:23;11.80;61.80
27114;DHT22;14648;49.730;8.614;2023-04-01T18:32:28;11.80;61.90
27114;DHT22;14648;49.730;8.614;2023-04-01T18:43:48;11.70;62.10
27114;DHT22;14648;49.730;8.614;2023-04-01T18:46:31;11.70;62.10
27114;DHT22;14648;49.730;8.614;2023-04-01T18:49:21;11.60;62.00
27114;DHT22;14648;49.730;8.614;2023-04-01T18:52:18;11.70;62.30
27114;DHT22;14648;49.730;8.614;2023-04-01T18:57:46;11.60;62.30
27114;DHT22;14648;49.730;8.614;2023-04-01T19:00:39;11.60;62.30
27114;DHT22;14648;49.730;8.614;2023-04-01T19:05:49;11.60;62.40
27114;DHT22;14648;49.730;8.614;2023-04-01T19:08:32;11.50;62.40
27114;DHT22;14648;49.730;8.614;2023-04-01T19:11:27;11.60;63.40
27114;DHT22;14648;49.730;8.614;2023-04-01T19:17:21;11.60;62.50
27114;DHT22;14648;49.730;8.614;2023-04-01T19:20:07;11.50;62.50
27114;DHT22;14648;49.730;8.614;2023-04-01T19:25:47;11.50;62.50
27114;DHT22;14648;49.730;8.614;2023-04-01T19:31:35;11.40;62.40
27114;DHT22;14648;49.730;8.614;2023-04-01T19:34:33;11.40;62.40
27114;DHT22;14648;49.730;8.614;2023-04-01T19:37:25;11.40;62.40
27114;DHT22;14648;49.730;8.614;2023-04-01T19:43:20;11.40;62.50
27114;DHT22;14648;49.730;8.614;2023-04-01T19:49:06;11.40;62.40
27114;DHT22;14648;49.730;8.614;2023-04-01T19:52:03;11.40;62.50
27114;DHT22;14648;49.730;8.614;2023-04-01T19:54:53;11.30;62.50
27114;DHT22;14648;49.730;8.614;2023-04-01T19:58:16;11.40;62.60
27114;DHT22;14648;49.730;8.614;2023-04-01T20:00:53;11.40;63.40
27114;DHT22;14648;49.730;8.614;2023-04-01T20:14:51;11.40;62.70
27114;DHT22;14648;49.730;8.614;2023-04-01T20:33:37;11.30;63.00
27114;DHT22;14648;49.730;8.614;2023-04-01T20:53:20;11.30;62.90
27114;DHT22;14648;49.730;8.614;2023-04-01T20:56:20;11.30;62.90
27114;DHT22;14648;49.730;8.614;2023-04-01T21:02:52;11.30;63.00
27114;DHT22;14648;49.730;8.614;2023-04-01T21:14:28;11.30;63.10
27114;DHT22;14648;49.730;8.614;2023-04-01T21:29:23;11.30;63.20
27114;DHT22;14648;49.730;8.614;2023-04-01T21:34:48;11.20;63.20
27114;DHT22;14648;49.730;8.614;2023-04-01T21:40:52;11.20;63.30
27114;DHT22;14648;49.730;8.614;2023-04-01T21:43:51;11.30;63.40
27114;DHT22;14648;49.730;8.614;2023-04-01T21:46:57;11.20;63.40
27114;DHT22;14648;49.730;8.614;2023-04-01T21:53:19;11.20;63.50
27114;DHT22;14648;49.730;8.614;2023-04-01T21:56:43;11.20;64.30
27114;DHT22;14648;49.730;8.614;2023-04-01T22:05:22;11.20;63.70
27114;DHT22;14648;49.730;8.614;2023-04-01T22:11:04;11.10;63.80
27114;DHT22;14648;49.730;8.614;2023-04-01T22:16:39;11.10;64.20
27114;DHT22;14648;49.730;8.614;2023-04-01T22:19:22;11.00;64.20
27114;DHT22;14648;49.730;8.614;2023-04-01T22:22:13;11.00;64.30
27114;DHT22;14648;49.730;8.614;2023-04-01T22:24:50;11.00;64.40
27114;DHT22;14648;49.730;8.614;2023-04-01T22:30:59;11.00;64.60
27114;DHT22;14648;49.730;8.614;2023-04-01T22:33:48;10.90;64.70
27114;DHT22;14648;49.730;8.614;2023-04-01T22:36:36;10.90;64.90
27114;DHT22;14648;49.730;8.614;2023-04-01T22:39:42;10.80;65.00
27114;DHT22;14648;49.730;8.614;2023-04-01T22:42:45;10.80;65.30
27114;DHT22;14648;49.730;8.614;2023-04-01T22:45:30;10.70;65.40
27114;DHT22;14648;49.730;8.614;2023-04-01T22:48:35;10.70;65.60
27114;DHT22;14648;49.730;8.614;2023-04-01T22:54:31;10.50;66.00
27114;DHT22;14648;49.730;8.614;2023-04-01T22:57:14;10.50;66.20
27114;DHT22;14648;49.730;8.614;2023-04-01T23:00:14;10.50;66.50
27114;DHT22;14648;49.730;8.614;2023-04-01T23:05:53;10.40;66.80
27114;DHT22;14648;49.730;8.614;2023-04-01T23:08:39;10.50;66.80
27114;DHT22;14648;49.730;8.614;2023-04-01T23:11:30;10.50;67.20
27114;DHT22;14648;49.730;8.614;2023-04-01T23:23:11;10.30;67.60
27114;DHT22;14648;49.730;8.614;2023-04-01T23:26:10;10.30;67.70
27114;DHT22;14648;49.730;8.614;2023-04-01T23:28:59;10.30;68.00
27114;DHT22;14648;49.730;8.614;2023-04-01T23:31:37;10.30;68.30
27114;DHT22;14648;49.730;8.614;2023-04-01T23:34:21;10.30;68.50
27114;DHT22;14648;49.730;8.614;2023-04-01T23:37:02;10.30;68.70
27114;DHT22;14648;49.730;8.614;2023-04-01T23:39:40;10.20;68.60
27114;DHT22;14648;49.730;8.614;2023-04-01T23:42:27;10.30;68.70
27114;DHT22;14648;49.730;8.614;2023-04-01T23:45:01;10.30;69.00
27114;DHT22;14648;49.730;8.614;2023-04-01T23:47:39;10.30;68.90
27114;DHT22;14648;49.730;8.614;2023-04-01T23:50:18;10.30;69.20
27114;DHT22;14648;49.730;8.614;2023-04-01T23:53:01;10.30;69.40
27114;DHT22;14648;49.730;8.614;2023-04-01T23:55:33;10.30;69.60
